Burke Lakefront Airport
KBKL : now visible

Airfield :











YOU CAN JOIN US ON...

 
LOGIN :

Register | Disclaimer

   EN    FR    IT 

 









Legend :    VFR   Marginal VFR   IFR   Intensive IFR   Very Intensive IFR
Visi :
Ceiling :
>= 8 km
>= 3000ft
5 to 8 km
1000 to 3000 ft
1500m to 5 km
500 to 1000 ft
800 to 1500m
200 to 500 ft
< 800m
< 200 ft
Symbols :   Thunderstorms  Fog  Heavy snow  Heavy precipitations  Wind > 20 kt







- Airport Elevation : 583 ft
- IATA code : BKL


KBKL - Burke Lakefront

CURRENT METAR :
  • 201953Z 02008KT 10SM CLR 28/18 A3012 RMK AO2 SLP195 T02830183

EXPIRED METARs :
  • 201853Z 02008KT 10SM SCT070 27/18 A3014 RMK AO2 SLP201 T02670183
  • 201753Z 00000KT 10SM CLR 27/18 A3015 RMK AO2 SLP207 T02720183 10289 20172 58008

TAF N/A
No reported NOTAMs for that airfield.



MET'MAP, your aeronautical weather chart ! - Copyright ORBIFLY December 2007 - Disclaimer

ORBIFLY MET'MAP TEAM :

Programming & Development : Alexandra Zaïnal
Concept & Development : Baudouin d'Aumeries
Co-Development & Prog : Marc-Olivier Méhu
Technical & hardware support : Manuel Goepfert

Contact : metmap@orbifly.com




SOURCES & CREDITS :

   NOAA       Earth
Advisory